Time;durP1;ratioP1;P1;durP2;ratioP2;P2;SDS_P1;SDS_P2;PMS_P1;PMS_P2;Temp;Humidity;BMP_temperature;BMP_pressure;BME280_temperature;BME280_humidity;BME280_pressure;Samples;Min_cycle;Max_cycle;Signal;HPM_P1;HPM_P2
2021/09/15 00:03:40;;;;;;;;;;;;;;;;;;;;;
2021/09/15 00:06:40;;;;;;;4.65;2.78;;;19.20;99.90;;;;;;5994237;24;20035;-83
2021/09/15 00:10:16;;;;;;;4.95;3.08;;;19.20;99.90;;;;;;5994229;23;20552;-83
2021/09/15 00:16:56;;;;;;;;;;;;;;;;;;;;;
2021/09/15 00:24:01;;;;;;;3.65;3.13;;;19.20;99.90;;;;;;6021588;23;20564;-83
2021/09/15 00:26:40;;;;;;;;;;;19.10;99.90;;;;;;5999024;23;20020;-84
2021/09/15 00:32:56;;;;;;;4.68;2.92;;;19.10;99.90;;;;;;6094641;23;20018;-84
2021/09/15 00:36:56;;;;;;;;;;;;;;;;;;;;;
2021/09/15 00:48:03;;;;;;;;;;;;;;;;;;;;;
2021/09/15 00:51:43;;;;;;;;;;;;;;;;;;;;;
2021/09/15 00:55:01;;;;;;;5.00;2.65;;;18.90;99.90;;;;;;5948318;23;20536;-85
2021/09/15 00:57:57;;;;;;;3.00;2.47;;;18.90;99.90;;;;;;5993133;23;20028;-85
2021/09/15 01:16:23;;;;;;;4.38;3.45;;;18.80;99.90;;;;;;5856910;24;20018;-86
2021/09/15 01:20:01;;;;;;;;;;;;;;;;;;;;;
2021/09/15 01:23:50;;;;;;;4.03;2.78;;;18.80;99.90;;;;;;5784642;24;20105;-84
2021/09/15 01:27:45;;;;;;;;;;;;;;;;;;;;;
2021/09/15 01:36:56;;;;;;;3.97;3.40;;;18.50;99.90;;;;;;5845225;24;20093;-86
2021/09/15 01:39:53;;;;;;;6.07;3.85;;;18.50;99.90;;;;;;5962892;23;20007;-84
2021/09/15 01:44:14;;;;;;;4.30;3.35;;;18.50;99.90;;;;;;6021643;23;20031;-85
2021/09/15 01:47:00;;;;;;;;;;;;;;;;;;;;;
2021/09/15 01:50:02;;;;;;;3.83;3.00;;;18.50;99.90;;;;;;6025558;23;20071;-86
2021/09/15 01:53:39;;;;;;;;;;;;;;;;;;;;;
2021/09/15 02:00:51;;;;;;;3.60;3.13;;;18.30;99.90;;;;;;5952086;24;20025;-84
2021/09/15 02:08:43;;;;;;;;;;;;;;;;;;;;;
2021/09/15 02:15:32;;;;;;;;;;;;;;;;;;;;;
2021/09/15 02:39:30;;;;;;;;;;;;;;;;;;;;;
2021/09/15 02:43:04;;;;;;;;;;;;;;;;;;;;;
2021/09/15 03:03:23;;;;;;;6.13;3.05;;;17.80;99.90;;;;;;5697997;25;20157;-86
2021/09/15 03:07:04;;;;;;;;;;;;;;;;;;;;;
2021/09/15 03:18:11;;;;;;;;;;;;;;;;;;;;;
2021/09/15 03:33:21;;;;;;;;;;;;;;;;;;;;;
2021/09/15 03:37:20;;;;;;;5.72;2.92;;;17.80;99.90;;;;;;5782422;24;20027;-83
2021/09/15 03:41:02;;;;;;;3.67;3.22;;;17.70;99.90;;;;;;5839672;24;20029;-83
2021/09/15 03:44:46;;;;;;;5.53;4.03;;;17.80;99.90;;;;;;5856985;24;20018;-85
2021/09/15 03:59:08;;;;;;;5.07;3.08;;;17.90;99.90;;;;;;5777199;24;20074;-83
2021/09/15 04:10:36;;;;;;;3.97;3.45;;;18.00;99.90;;;;;;5778229;24;20502;-85
2021/09/15 04:13:31;;;;;;;4.78;3.53;;;18.10;99.90;;;;;;5675266;25;20033;-86
2021/09/15 04:21:04;;;;;;;5.07;3.67;;;18.00;99.90;;;;;;5700282;25;20064;-84
2021/09/15 05:11:09;;;;;;;7.25;3.90;;;18.10;99.90;;;;;;5576927;25;20061;-83
2021/09/15 05:30:57;;;;;;;;;;;;;;;;;;;;;
2021/09/15 05:42:34;;;;;;;6.18;4.55;;;18.20;99.90;;;;;;5584848;25;20095;-86
2021/09/15 06:05:22;;;;;;;6.68;5.95;;;18.30;99.90;;;;;;6183522;23;20029;-84
2021/09/15 06:11:33;;;;;;;7.28;6.50;;;18.30;99.90;;;;;;6078782;23;20010;-83
2021/09/15 06:18:45;;;;;;;;;;;;;;;;;;;;;
2021/09/15 06:22:18;;;;;;;7.65;6.85;;;18.30;99.90;;;;;;5976932;24;20386;-84
2021/09/15 06:25:41;;;;;;;8.80;6.50;;;18.40;99.90;;;;;;5926170;24;20012;-84
2021/09/15 06:28:30;;;;;;;8.50;7.60;;;18.30;99.90;;;;;;5923535;24;20037;-84
2021/09/15 06:31:23;;;;;;;8.50;7.55;;;18.30;99.90;;;;;;5966507;24;20446;-83
2021/09/15 06:34:07;;;;;;;8.23;7.25;;;18.30;99.90;;;;;;5942675;24;20067;-84
2021/09/15 06:37:15;;;;;;;;;;;;;;;;;;;;;
2021/09/15 06:40:15;;;;;;;;;;;;;;;;;;;;;
2021/09/15 06:46:39;;;;;;;;;;;;;;;;;;;;;
2021/09/15 06:49:15;;;;;;;9.02;8.10;;;18.40;99.90;;;;;;6051776;23;20436;-84
2021/09/15 06:51:56;;;;;;;8.85;7.85;;;18.40;99.90;;;;;;6035819;23;20010;-85
2021/09/15 06:57:26;;;;;;;9.33;8.27;;;18.40;99.90;;;;;;6174445;23;20063;-85
2021/09/15 07:00:03;;;;;;;9.13;7.80;;;18.40;99.90;;;;;;6148743;23;20338;-85
2021/09/15 07:03:06;;;;;;;9.07;8.13;;;18.40;99.90;;;;;;6174536;23;20037;-85
2021/09/15 07:08:56;;;;;;;9.05;7.80;;;18.30;99.90;;;;;;6173745;23;20009;-85
2021/09/15 07:11:40;;;;;;;9.23;8.02;;;18.30;99.90;;;;;;6173904;23;20009;-85
2021/09/15 07:14:39;;;;;;;9.82;8.82;;;18.30;99.90;;;;;;6198839;23;20024;-87
2021/09/15 07:17:17;;;;;;;9.90;8.25;;;18.30;99.90;;;;;;6150679;23;20005;-85
2021/09/15 07:20:24;;;;;;;9.27;8.00;;;18.20;99.90;;;;;;6200087;23;20005;-85
2021/09/15 07:25:51;;;;;;;9.73;8.70;;;18.20;99.90;;;;;;6181555;23;20063;-85
2021/09/15 07:28:51;;;;;;;9.30;8.00;;;18.30;99.90;;;;;;6171388;23;20016;-84
2021/09/15 07:31:49;;;;;;;11.82;8.88;;;18.30;99.90;;;;;;6149704;23;20088;-85
2021/09/15 07:38:34;;;;;;;8.43;7.53;;;18.30;99.90;;;;;;6174293;23;20100;-83
2021/09/15 07:41:56;;;;;;;;;;;;;;;;;;;;;
2021/09/15 07:45:04;;;;;;;8.80;7.43;;;18.30;99.90;;;;;;6198638;23;20024;-81
2021/09/15 07:48:05;;;;;;;9.75;8.05;;;18.30;99.90;;;;;;6147224;23;20046;-82
2021/09/15 07:51:17;;;;;;;9.80;6.78;;;18.20;99.90;;;;;;6148082;23;20009;-81
2021/09/15 07:54:25;;;;;;;8.45;7.55;;;18.30;99.90;;;;;;6175056;23;20020;-82
2021/09/15 07:57:26;;;;;;;9.35;8.00;;;18.30;99.90;;;;;;6178493;23;20020;-82
2021/09/15 08:01:12;;;;;;;10.30;8.23;;;18.30;99.90;;;;;;6172396;23;20013;-83
2021/09/15 08:07:49;;;;;;;8.75;7.82;;;18.30;99.90;;;;;;6197870;23;20309;-83
2021/09/15 08:11:27;;;;;;;9.00;7.15;;;18.30;99.90;;;;;;6178570;23;20032;-83
2021/09/15 08:25:52;;;;;;;;;;;;;;;;;;;;;
2021/09/15 08:29:15;;;;;;;8.32;7.53;;;18.40;99.90;;;;;;5997506;23;20067;-84
2021/09/15 08:35:54;;;;;;;9.40;7.45;;;18.40;99.90;;;;;;6021307;23;20079;-83
2021/09/15 08:42:56;;;;;;;6.88;6.22;;;18.40;99.90;;;;;;5940023;24;20024;-83
2021/09/15 08:45:24;;;;;;;7.22;6.50;;;18.40;99.90;;;;;;6018702;23;20017;-83
2021/09/15 08:47:54;;;;;;;10.57;7.30;;;18.50;99.90;;;;;;6117656;23;20017;-82
2021/09/15 08:50:20;;;;;;;8.98;8.07;;;18.60;99.90;;;;;;6118530;23;20032;-82
2021/09/15 08:52:46;;;;;;;9.30;8.27;;;18.70;99.90;;;;;;6118657;23;20001;-82
2021/09/15 08:55:15;;;;;;;9.10;7.50;;;18.70;99.90;;;;;;6118622;23;20021;-82
2021/09/15 08:57:41;;;;;;;8.90;8.00;;;18.80;99.90;;;;;;6116181;23;20010;-83
2021/09/15 09:00:17;;;;;;;10.75;9.15;;;19.00;99.90;;;;;;6113598;23;20022;-83
2021/09/15 09:02:51;;;;;;;10.32;8.63;;;19.10;99.90;;;;;;6128644;23;20021;-83
2021/09/15 09:05:17;;;;;;;7.65;6.95;;;19.20;99.90;;;;;;6118657;23;20017;-83
2021/09/15 09:07:44;;;;;;;8.05;7.25;;;19.40;99.90;;;;;;6119018;23;20013;-83
2021/09/15 09:10:14;;;;;;;10.50;8.50;;;19.60;99.90;;;;;;6118387;23;20006;-83
2021/09/15 09:12:44;;;;;;;9.13;8.23;;;19.80;99.90;;;;;;6115849;23;20052;-83
2021/09/15 09:15:14;;;;;;;;;;;19.80;99.90;;;;;;6119045;23;20026;-83
2021/09/15 09:17:39;;;;;;;10.15;8.95;;;19.90;99.90;;;;;;6142746;23;19904;-83
2021/09/15 09:20:23;;;;;;;9.02;8.13;;;19.90;99.90;;;;;;6118020;23;20009;-84
2021/09/15 09:22:56;;;;;;;7.60;6.85;;;19.80;99.90;;;;;;6143027;23;20041;-83
2021/09/15 09:25:22;;;;;;;8.35;7.45;;;20.10;99.90;;;;;;6118533;23;20048;-83
2021/09/15 09:27:50;;;;;;;9.32;7.15;;;20.30;99.90;;;;;;6117190;23;20010;-83
2021/09/15 09:30:37;;;;;;;8.27;7.43;;;20.20;99.90;;;;;;6117676;23;20017;-84
2021/09/15 09:33:05;;;;;;;8.38;7.03;;;20.40;99.90;;;;;;6142911;23;20078;-84
2021/09/15 09:35:38;;;;;;;7.78;6.97;;;20.50;99.90;;;;;;6118233;23;20013;-84
2021/09/15 09:38:15;;;;;;;8.00;7.20;;;20.70;99.90;;;;;;6118124;23;20009;-83
2021/09/15 09:41:04;;;;;;;10.27;9.27;;;20.70;99.90;;;;;;6115764;23;20006;-83
2021/09/15 09:47:20;;;;;;;12.38;11.07;;;20.40;99.90;;;;;;5975019;24;20284;-83
2021/09/15 09:50:10;;;;;;;12.25;9.82;;;20.10;99.90;;;;;;5919024;24;20163;-84
2021/09/15 09:53:16;;;;;;;9.80;8.65;;;20.20;99.90;;;;;;5965062;24;20066;-84
2021/09/15 09:55:42;;;;;;;10.98;8.90;;;20.30;99.90;;;;;;5897586;24;20080;-84
2021/09/15 09:58:08;;;;;;;9.23;7.85;;;20.30;99.90;;;;;;5964743;24;20024;-84
2021/09/15 10:00:37;;;;;;;12.88;10.07;;;20.40;99.90;;;;;;5941781;24;20454;-84
2021/09/15 10:03:04;;;;;;;12.68;11.27;;;20.30;99.90;;;;;;5918927;24;20406;-84
2021/09/15 10:05:30;;;;;;;10.10;9.00;;;20.30;99.90;;;;;;5942089;24;20357;-84
2021/09/15 10:07:55;;;;;;;13.05;11.68;;;20.30;99.90;;;;;;5919108;24;20042;-83
2021/09/15 10:10:22;;;;;;;11.45;10.32;;;20.10;99.90;;;;;;5920595;24;20016;-83
2021/09/15 10:12:53;;;;;;;15.23;11.68;;;20.30;99.90;;;;;;5920958;24;20076;-84
2021/09/15 10:15:19;;;;;;;13.40;11.82;;;20.30;99.90;;;;;;5920872;24;20088;-84
2021/09/15 10:17:51;;;;;;;13.27;11.88;;;20.40;99.90;;;;;;5920687;24;20017;-83
2021/09/15 10:20:25;;;;;;;15.18;12.38;;;20.30;99.90;;;;;;5920472;24;20009;-83
2021/09/15 10:22:51;;;;;;;13.90;11.88;;;20.30;99.90;;;;;;5955153;23;20029;-83
2021/09/15 10:25:18;;;;;;;15.15;11.70;;;20.20;99.90;;;;;;6114375;23;20013;-82
2021/09/15 10:28:04;;;;;;;17.70;14.35;;;20.10;99.90;;;;;;6090606;23;20016;-83
2021/09/15 10:30:41;;;;;;;15.57;13.95;;;20.20;99.90;;;;;;6115078;23;20037;-83
2021/09/15 10:33:07;;;;;;;14.23;12.48;;;20.10;99.90;;;;;;6090900;23;20010;-83
2021/09/15 10:35:48;;;;;;;16.75;14.57;;;20.40;99.90;;;;;;6114739;23;20060;-84
2021/09/15 10:38:14;;;;;;;14.50;12.52;;;20.30;99.90;;;;;;6114643;23;20202;-83
2021/09/15 10:40:41;;;;;;;16.38;14.43;;;20.40;99.90;;;;;;6115036;23;20014;-84
2021/09/15 10:43:58;;;;;;;14.02;12.52;;;20.20;99.90;;;;;;6090387;23;20018;-83
2021/09/15 10:46:26;;;;;;;12.90;10.80;;;20.40;99.90;;;;;;6002966;23;20019;-83
2021/09/15 10:49:39;;;;;;;13.05;11.68;;;20.70;99.90;;;;;;6026777;23;20103;-84
2021/09/15 10:52:07;;;;;;;11.85;10.27;;;20.80;99.90;;;;;;6003379;23;20031;-83
2021/09/15 10:54:46;;;;;;;16.73;13.27;;;20.90;99.90;;;;;;6026787;23;20011;-83
2021/09/15 10:57:16;;;;;;;18.30;14.25;;;20.60;99.90;;;;;;6003528;23;20007;-84
2021/09/15 10:59:53;;;;;;;12.35;11.05;;;20.70;99.90;;;;;;6026713;23;20011;-84
2021/09/15 11:02:41;;;;;;;12.48;11.20;;;21.10;99.90;;;;;;6003098;23;20016;-83
2021/09/15 11:05:25;;;;;;;10.68;9.57;;;21.40;99.90;;;;;;6027009;23;20007;-84
2021/09/15 11:07:51;;;;;;;12.63;10.73;;;21.50;99.90;;;;;;6026177;23;20011;-84
2021/09/15 11:10:34;;;;;;;15.73;14.13;;;21.40;99.90;;;;;;6026665;23;20039;-83
2021/09/15 11:13:01;;;;;;;15.48;13.77;;;21.00;99.90;;;;;;6026641;23;20038;-84
2021/09/15 11:15:30;;;;;;;18.75;14.85;;;21.10;99.90;;;;;;6003185;23;20027;-84
2021/09/15 11:17:56;;;;;;;;;;;21.20;99.90;;;;;;6027106;23;20091;-83
2021/09/15 11:20:23;;;;;;;18.52;15.32;;;21.20;99.90;;;;;;6026579;23;20005;-83
2021/09/15 11:22:50;;;;;;;22.17;18.85;;;21.20;99.90;;;;;;6044922;23;20021;-83
2021/09/15 11:25:23;;;;;;;25.77;20.58;;;20.90;99.90;;;;;;6089837;23;20062;-83
2021/09/15 11:28:14;;;;;;;30.50;23.45;;;20.80;99.90;;;;;;6089830;23;20018;-83
2021/09/15 11:30:50;;;;;;;31.75;24.65;;;20.50;99.90;;;;;;6090176;23;20033;-83
2021/09/15 11:33:23;;;;;;;37.63;29.00;;;20.50;99.90;;;;;;6089798;23;20010;-84
2021/09/15 11:35:54;;;;;;;43.13;34.40;;;20.50;99.90;;;;;;6089895;23;20104;-83
2021/09/15 11:38:24;;;;;;;48.88;35.53;;;20.40;99.90;;;;;;6089730;23;20021;-83
2021/09/15 11:40:49;;;;;;;47.95;35.67;;;20.20;99.90;;;;;;6113772;23;20026;-82
2021/09/15 11:43:18;;;;;;;50.05;36.35;;;20.30;99.90;;;;;;6113707;23;20022;-82
2021/09/15 11:45:47;;;;;;;50.75;37.53;;;20.20;99.90;;;;;;6089694;23;20427;-81
2021/09/15 11:48:24;;;;;;;59.33;41.08;;;20.20;99.90;;;;;;6141487;23;20044;-82
2021/09/15 11:50:49;;;;;;;50.88;38.75;;;20.10;99.90;;;;;;6118607;23;20033;-82
2021/09/15 11:53:16;;;;;;;52.72;37.28;;;20.20;99.90;;;;;;6143004;23;20009;-82
2021/09/15 11:56:18;;;;;;;55.78;39.97;;;20.30;99.90;;;;;;6118410;23;20400;-83
2021/09/15 11:58:34;;;;;;;50.63;37.38;;;20.20;99.90;;;;;;6138261;23;20040;-82
2021/09/15 12:00:59;;;;;;;49.70;38.10;;;20.20;99.90;;;;;;6118693;23;20012;-81
2021/09/15 12:03:28;;;;;;;50.33;36.30;;;20.30;99.90;;;;;;6118157;23;20018;-82
2021/09/15 12:05:57;;;;;;;54.00;37.22;;;20.40;99.90;;;;;;6143028;23;20010;-83
2021/09/15 12:08:23;;;;;;;49.80;33.20;;;20.70;99.90;;;;;;6117933;23;20009;-82
2021/09/15 12:10:53;;;;;;;47.13;33.83;;;21.00;99.90;;;;;;6118524;23;20017;-82
2021/09/15 12:13:19;;;;;;;46.92;33.20;;;21.20;99.90;;;;;;6142488;23;20009;-82
2021/09/15 12:15:49;;;;;;;44.00;32.60;;;21.10;99.90;;;;;;6118510;23;20009;-82
2021/09/15 12:18:20;;;;;;;42.92;30.33;;;20.90;99.90;;;;;;6118134;23;20006;-82
2021/09/15 12:20:51;;;;;;;46.47;33.13;;;20.80;99.90;;;;;;6118228;23;20057;-83
2021/09/15 12:23:30;;;;;;;46.55;32.20;;;20.70;99.90;;;;;;6118176;23;20028;-82
2021/09/15 12:25:57;;;;;;;45.20;33.35;;;20.60;99.90;;;;;;6140613;23;20033;-81
2021/09/15 12:28:27;;;;;;;44.83;33.75;;;20.30;99.90;;;;;;6117953;23;20105;-81
2021/09/15 12:30:54;;;;;;;44.67;36.05;;;20.50;99.90;;;;;;6142800;23;20005;-83
2021/09/15 12:33:28;;;;;;;42.92;33.75;;;20.50;99.90;;;;;;6117892;23;20013;-83
2021/09/15 12:36:19;;;;;;;47.33;37.22;;;20.50;99.90;;;;;;6118329;23;20006;-83
2021/09/15 12:39:00;;;;;;;43.67;35.47;;;20.20;99.90;;;;;;6118015;23;20001;-82
2021/09/15 12:41:51;;;;;;;32.55;28.38;;;20.10;99.90;;;;;;6117976;23;20010;-82
2021/09/15 12:44:17;;;;;;;26.98;22.70;;;20.00;99.90;;;;;;6117818;23;20009;-82
2021/09/15 12:46:47;;;;;;;21.73;19.23;;;20.10;99.90;;;;;;6112699;23;20021;-83
2021/09/15 12:49:33;;;;;;;20.92;16.75;;;20.30;99.90;;;;;;6088576;23;20016;-82
2021/09/15 12:52:08;;;;;;;22.40;15.80;;;20.20;99.90;;;;;;6089071;23;20020;-82
2021/09/15 12:54:35;;;;;;;19.95;13.90;;;20.20;99.90;;;;;;6088339;23;20101;-81
2021/09/15 12:57:15;;;;;;;16.50;11.68;;;20.40;99.90;;;;;;6112290;23;20010;-81
2021/09/15 12:59:41;;;;;;;15.25;12.70;;;20.70;99.90;;;;;;6088487;23;20073;-81
2021/09/15 13:02:23;;;;;;;14.65;11.35;;;20.60;99.90;;;;;;6112187;23;20044;-81
2021/09/15 13:04:49;;;;;;;18.30;14.30;;;20.70;99.90;;;;;;6137190;23;20010;-81
2021/09/15 13:07:19;;;;;;;16.85;14.15;;;20.30;99.90;;;;;;6089062;23;20390;-81
2021/09/15 13:09:49;;;;;;;14.93;12.07;;;20.20;99.90;;;;;;6137337;23;20032;-80
2021/09/15 13:12:17;;;;;;;13.48;11.23;;;20.30;99.90;;;;;;6113481;23;20030;-82
2021/09/15 13:14:49;;;;;;;10.73;9.10;;;20.50;99.90;;;;;;6112765;23;20021;-81
2021/09/15 13:17:16;;;;;;;8.70;6.82;;;20.70;99.90;;;;;;6088736;23;20053;-82
2021/09/15 13:19:41;;;;;;;8.68;5.55;;;20.30;99.90;;;;;;6137528;23;20018;-81
2021/09/15 13:22:10;;;;;;;5.78;5.15;;;20.10;99.90;;;;;;6112952;23;20519;-81
2021/09/15 13:24:36;;;;;;;6.05;4.82;;;20.00;99.90;;;;;;6136450;23;20109;-82
2021/09/15 13:27:04;;;;;;;5.80;4.82;;;20.10;99.90;;;;;;6112925;23;20047;-81
2021/09/15 13:29:30;;;;;;;7.82;4.05;;;20.00;99.90;;;;;;6088717;23;20006;-81
2021/09/15 13:31:55;;;;;;;5.97;4.10;;;19.90;99.90;;;;;;6112882;23;20050;-80
2021/09/15 13:34:21;;;;;;;4.85;3.03;;;19.80;99.90;;;;;;6112708;23;20017;-81
2021/09/15 13:36:46;;;;;;;5.45;2.95;;;19.70;99.90;;;;;;6113386;23;20013;-80
2021/09/15 13:39:12;;;;;;;5.07;2.88;;;20.00;99.90;;;;;;6112560;23;20091;-81
2021/09/15 13:41:38;;;;;;;5.45;3.47;;;19.90;99.90;;;;;;6137523;23;20025;-81
2021/09/15 13:44:05;;;;;;;2.60;1.67;;;19.90;99.90;;;;;;6137006;23;20419;-81
2021/09/15 13:46:31;;;;;;;2.15;1.05;;;19.60;99.90;;;;;;6114685;23;20026;-82
2021/09/15 13:48:57;;;;;;;5.53;1.23;;;19.40;99.90;;;;;;6090039;23;20033;-81
2021/09/15 13:51:22;;;;;;;4.45;1.33;;;19.30;99.90;;;;;;6114263;23;20006;-81
2021/09/15 13:53:48;;;;;;;4.18;1.00;;;19.30;99.90;;;;;;6139127;23;20005;-82
2021/09/15 13:56:14;;;;;;;2.85;0.80;;;19.20;99.90;;;;;;6114271;23;20037;-80
2021/09/15 13:58:39;;;;;;;6.53;1.42;;;19.30;99.90;;;;;;6138888;23;20056;-82
2021/09/15 14:01:05;;;;;;;3.97;2.00;;;19.30;99.90;;;;;;6138751;23;20010;-81
2021/09/15 14:03:30;;;;;;;4.68;2.95;;;19.40;99.90;;;;;;6089859;23;20037;-81
2021/09/15 14:05:56;;;;;;;4.35;1.98;;;19.40;99.90;;;;;;6114439;23;20006;-82
2021/09/15 14:08:22;;;;;;;5.15;2.47;;;19.50;99.90;;;;;;6090034;23;20086;-82
2021/09/15 14:10:47;;;;;;;4.93;2.55;;;19.50;99.90;;;;;;6113758;23;20006;-82
2021/09/15 14:13:13;;;;;;;5.65;2.22;;;19.50;99.90;;;;;;6140447;23;20026;-83
2021/09/15 14:15:40;;;;;;;3.40;2.40;;;19.50;99.90;;;;;;6138598;23;20005;-82
2021/09/15 14:18:06;;;;;;;4.47;2.83;;;19.50;99.90;;;;;;6114115;23;20254;-80
2021/09/15 14:20:31;;;;;;;4.28;3.50;;;19.50;99.90;;;;;;6114074;23;20580;-81
2021/09/15 14:22:57;;;;;;;6.88;2.70;;;19.60;99.90;;;;;;6138681;23;20018;-81
2021/09/15 14:25:23;;;;;;;4.97;2.13;;;19.80;99.90;;;;;;6113774;23;20088;-81
2021/09/15 14:27:48;;;;;;;6.05;3.00;;;20.10;99.90;;;;;;6114330;23;20454;-80
2021/09/15 14:30:16;;;;;;;4.55;2.55;;;20.10;99.90;;;;;;6089947;23;20056;-82
2021/09/15 14:32:42;;;;;;;7.57;2.10;;;20.00;99.90;;;;;;6138878;23;20014;-81
2021/09/15 14:35:08;;;;;;;3.50;2.05;;;19.90;99.90;;;;;;6138750;23;20092;-82
2021/09/15 14:37:34;;;;;;;3.75;2.70;;;20.00;99.90;;;;;;6138351;23;20013;-82
2021/09/15 14:40:01;;;;;;;6.72;2.80;;;20.00;99.90;;;;;;6139013;23;20081;-82
2021/09/15 14:42:27;;;;;;;4.60;2.28;;;20.00;99.90;;;;;;6138763;23;20014;-82
2021/09/15 14:44:53;;;;;;;5.80;2.88;;;20.00;99.90;;;;;;6139858;23;20442;-82
2021/09/15 14:47:19;;;;;;;4.32;2.05;;;20.20;99.90;;;;;;6143319;23;20017;-82
2021/09/15 14:49:44;;;;;;;5.05;1.95;;;20.40;99.90;;;;;;6143884;23;20002;-82
2021/09/15 14:52:10;;;;;;;4.13;1.95;;;20.60;99.90;;;;;;6143058;23;20061;-82
2021/09/15 14:54:37;;;;;;;4.45;1.85;;;20.60;99.90;;;;;;6119231;23;20082;-82
2021/09/15 14:57:05;;;;;;;3.40;1.10;;;20.40;99.90;;;;;;6143181;23;20435;-81
2021/09/15 14:59:31;;;;;;;2.28;0.88;;;20.20;99.90;;;;;;6118892;23;20014;-81
2021/09/15 15:01:56;;;;;;;5.50;1.00;;;19.90;99.90;;;;;;6118723;23;20153;-81
2021/09/15 15:04:23;;;;;;;4.05;0.90;;;19.90;99.90;;;;;;6143551;23;20006;-82
2021/09/15 15:06:50;;;;;;;3.13;0.77;;;19.80;99.90;;;;;;6051651;23;20023;-82
2021/09/15 15:09:16;;;;;;;4.57;1.10;;;19.70;99.90;;;;;;6059851;23;20050;-81
2021/09/15 15:11:42;;;;;;;4.40;0.80;;;19.70;99.90;;;;;;6108732;23;20456;-81
2021/09/15 15:14:08;;;;;;;2.65;0.90;;;19.60;99.90;;;;;;6084626;23;20080;-82
2021/09/15 15:16:34;;;;;;;5.22;1.33;;;19.60;99.90;;;;;;6061206;23;20006;-82
2021/09/15 15:19:00;;;;;;;3.67;0.77;;;19.60;99.90;;;;;;6109026;23;20392;-82
2021/09/15 15:21:26;;;;;;;3.00;0.85;;;19.70;99.90;;;;;;6061074;23;20007;-82
2021/09/15 15:23:51;;;;;;;4.40;0.60;;;19.70;99.90;;;;;;6084950;23;20010;-83
2021/09/15 15:26:17;;;;;;;2.47;0.50;;;19.70;99.90;;;;;;6060895;23;20037;-80
2021/09/15 15:28:43;;;;;;;4.28;0.60;;;19.80;99.90;;;;;;6060791;23;20010;-81
2021/09/15 15:31:08;;;;;;;6.15;0.85;;;19.70;99.90;;;;;;6060840;23;20066;-82
2021/09/15 15:33:34;;;;;;;2.72;0.60;;;19.70;99.90;;;;;;6060699;23;20010;-81
2021/09/15 15:36:00;;;;;;;4.22;0.70;;;19.70;99.90;;;;;;6060658;23;20015;-81
2021/09/15 15:38:25;;;;;;;4.63;0.70;;;19.70;99.90;;;;;;6084518;23;20002;-81
2021/09/15 15:40:52;;;;;;;2.58;0.60;;;19.70;99.90;;;;;;6084774;23;20014;-81
2021/09/15 15:43:18;;;;;;;2.97;0.60;;;20.10;99.90;;;;;;6059137;23;20018;-80
2021/09/15 15:45:47;;;;;;;3.13;0.90;;;20.20;99.90;;;;;;6085074;23;20002;-81
2021/09/15 15:48:13;;;;;;;2.30;0.57;;;19.70;99.90;;;;;;6057646;23;20102;-80
2021/09/15 15:50:39;;;;;;;2.30;0.80;;;19.60;99.90;;;;;;6080259;23;20014;-81
2021/09/15 15:53:05;;;;;;;2.28;0.50;;;19.50;99.90;;;;;;6056189;23;20015;-81
2021/09/15 15:55:30;;;;;;;3.58;0.60;;;19.40;99.90;;;;;;6080186;23;20039;-81
2021/09/15 15:57:56;;;;;;;4.57;0.80;;;19.50;99.90;;;;;;6054526;23;20003;-82
2021/09/15 16:00:23;;;;;;;2.72;0.93;;;19.50;99.90;;;;;;6054260;23;20026;-82
2021/09/15 16:02:49;;;;;;;4.03;1.48;;;19.50;99.90;;;;;;6031494;23;20136;-82
2021/09/15 16:05:15;;;;;;;4.40;1.60;;;19.50;99.90;;;;;;6031646;23;20007;-82
2021/09/15 16:07:42;;;;;;;2.75;0.80;;;19.50;99.90;;;;;;6011090;23;20035;-82
2021/09/15 16:10:07;;;;;;;3.88;1.10;;;19.40;99.90;;;;;;6054758;23;20007;-82
2021/09/15 16:12:33;;;;;;;3.35;0.80;;;19.40;99.90;;;;;;6054558;23;20035;-82
2021/09/15 16:14:59;;;;;;;3.78;1.00;;;19.40;99.90;;;;;;6055005;23;20014;-81
2021/09/15 16:17:24;;;;;;;3.33;0.98;;;19.30;99.90;;;;;;6053835;23;20011;-82
2021/09/15 16:19:50;;;;;;;4.22;0.82;;;19.40;99.90;;;;;;6030861;23;20334;-81
2021/09/15 16:22:15;;;;;;;2.55;0.80;;;19.40;99.90;;;;;;6050183;23;20022;-81
2021/09/15 16:24:41;;;;;;;5.60;1.30;;;19.40;99.90;;;;;;6053838;23;20033;-81
2021/09/15 16:27:07;;;;;;;2.92;1.00;;;19.40;99.90;;;;;;6029446;23;20015;-82
2021/09/15 16:29:33;;;;;;;3.97;1.05;;;19.40;99.90;;;;;;6053954;23;20039;-82
2021/09/15 16:31:58;;;;;;;5.20;1.70;;;19.30;99.90;;;;;;6030192;23;20002;-82
2021/09/15 16:34:24;;;;;;;4.78;2.42;;;19.30;99.90;;;;;;6053800;23;20026;-83
2021/09/15 16:36:49;;;;;;;6.25;3.00;;;19.30;99.90;;;;;;6053446;23;20007;-82
2021/09/15 16:39:16;;;;;;;9.05;4.55;;;19.20;99.90;;;;;;6055247;23;20014;-83
2021/09/15 16:41:42;;;;;;;6.28;3.45;;;19.10;99.90;;;;;;6054777;23;20023;-83
2021/09/15 16:44:08;;;;;;;4.93;3.40;;;19.10;99.90;;;;;;6053331;23;20011;-82
2021/09/15 16:46:33;;;;;;;5.68;4.90;;;19.10;99.90;;;;;;6052059;23;20031;-82
2021/09/15 16:48:59;;;;;;;5.45;3.90;;;19.00;99.90;;;;;;6055433;23;20086;-83
2021/09/15 16:51:25;;;;;;;6.10;3.38;;;18.90;99.90;;;;;;6031668;23;20019;-83
2021/09/15 16:53:51;;;;;;;5.65;3.60;;;18.80;99.90;;;;;;6080883;23;20003;-84
2021/09/15 16:56:17;;;;;;;7.53;2.95;;;18.70;99.90;;;;;;6055389;23;20030;-83
2021/09/15 16:58:43;;;;;;;5.47;2.13;;;18.60;99.90;;;;;;6053875;23;20034;-82
2021/09/15 17:01:08;;;;;;;4.22;1.75;;;18.60;99.90;;;;;;6055417;23;20025;-83
2021/09/15 17:03:34;;;;;;;5.00;0.82;;;18.60;99.90;;;;;;6055260;23;20011;-83
2021/09/15 17:06:00;;;;;;;4.45;0.80;;;18.50;99.90;;;;;;6024681;23;20026;-83
2021/09/15 17:08:25;;;;;;;5.32;0.68;;;18.40;99.90;;;;;;6054766;23;20097;-83
2021/09/15 17:10:51;;;;;;;5.47;0.50;;;18.40;99.90;;;;;;6031840;23;20022;-83
2021/09/15 17:13:17;;;;;;;4.03;0.50;;;18.30;99.90;;;;;;6080698;23;20006;-83
2021/09/15 17:15:47;;;;;;;6.05;0.50;;;18.30;99.90;;;;;;6055106;23;20038;-83
2021/09/15 17:18:12;;;;;;;2.88;0.40;;;18.30;99.90;;;;;;6041845;23;20003;-83
2021/09/15 17:20:40;;;;;;;3.92;0.40;;;18.20;99.90;;;;;;6057686;23;20014;-82
2021/09/15 17:23:06;;;;;;;2.78;0.30;;;18.20;99.90;;;;;;6056004;23;20050;-83
2021/09/15 17:25:31;;;;;;;3.60;0.40;;;18.20;99.90;;;;;;6083329;23;20010;-82
2021/09/15 17:27:57;;;;;;;3.33;0.30;;;18.10;99.90;;;;;;6034355;23;20010;-83
2021/09/15 17:30:23;;;;;;;4.82;0.63;;;18.10;99.90;;;;;;6058104;23;20011;-83
2021/09/15 17:32:48;;;;;;;2.72;0.35;;;18.10;99.90;;;;;;6083639;23;20021;-82
2021/09/15 17:35:14;;;;;;;9.48;0.52;;;18.10;99.90;;;;;;6058357;23;20022;-83
2021/09/15 17:37:40;;;;;;;2.97;0.40;;;18.10;99.90;;;;;;6056673;23;20444;-83
2021/09/15 17:40:06;;;;;;;5.32;1.50;;;18.00;99.90;;;;;;6033876;23;20427;-83
2021/09/15 17:42:32;;;;;;;2.55;0.50;;;18.00;99.90;;;;;;6057889;23;20023;-81
2021/09/15 17:44:58;;;;;;;4.45;0.70;;;17.90;99.90;;;;;;6057491;23;20413;-83
2021/09/15 17:47:24;;;;;;;2.85;0.40;;;17.90;99.90;;;;;;6075194;23;20022;-82
2021/09/15 17:49:49;;;;;;;5.13;0.40;;;17.80;99.90;;;;;;6062668;23;20037;-83
2021/09/15 17:52:15;;;;;;;2.83;0.50;;;17.80;99.90;;;;;;6062788;23;20007;-82
2021/09/15 17:54:40;;;;;;;5.63;0.50;;;17.80;99.90;;;;;;6062316;23;20086;-82
2021/09/15 17:57:06;;;;;;;4.38;0.45;;;17.70;99.90;;;;;;6086603;23;20034;-82
2021/09/15 17:59:33;;;;;;;3.95;0.40;;;17.70;99.90;;;;;;6062377;23;20462;-82
2021/09/15 18:01:58;;;;;;;6.13;0.32;;;17.70;99.90;;;;;;6062256;23;20024;-82
2021/09/15 18:04:24;;;;;;;3.08;0.38;;;17.60;99.90;;;;;;6086577;23;20030;-82
2021/09/15 18:06:50;;;;;;;4.57;0.30;;;17.60;99.90;;;;;;6086624;23;20482;-83
2021/09/15 18:09:15;;;;;;;2.65;0.40;;;17.50;99.90;;;;;;6086195;23;20002;-82
2021/09/15 18:11:41;;;;;;;2.35;0.30;;;17.50;99.90;;;;;;6063082;23;20033;-82
2021/09/15 18:14:07;;;;;;;1.52;0.30;;;17.50;99.90;;;;;;6062548;23;20007;-82
2021/09/15 18:16:33;;;;;;;2.20;0.40;;;17.40;99.90;;;;;;6086748;23;20050;-82
2021/09/15 18:18:58;;;;;;;4.20;0.47;;;17.40;99.90;;;;;;6085963;23;20013;-83
2021/09/15 18:21:24;;;;;;;5.30;0.35;;;17.40;99.90;;;;;;6062073;23;20062;-82
2021/09/15 18:23:50;;;;;;;5.10;0.40;;;17.40;99.90;;;;;;6060582;23;20006;-82
2021/09/15 18:26:15;;;;;;;1.33;0.40;;;17.30;99.90;;;;;;6063732;23;20010;-82
2021/09/15 18:28:41;;;;;;;2.40;0.47;;;17.30;99.90;;;;;;6062896;23;20356;-83
2021/09/15 18:31:07;;;;;;;3.78;0.38;;;17.20;99.90;;;;;;6062071;23;20098;-84
2021/09/15 18:34:26;;;;;;;;;;;;;;;;;;;;;
2021/09/15 18:40:44;;;;;;;2.33;0.30;;;17.10;99.90;;;;;;6098608;23;20043;-82
2021/09/15 18:43:12;;;;;;;4.20;0.40;;;17.10;99.90;;;;;;6086648;23;20022;-83
2021/09/15 18:45:38;;;;;;;3.13;0.30;;;17.10;99.90;;;;;;6080266;23;20006;-83
2021/09/15 18:48:04;;;;;;;2.95;0.30;;;17.00;99.90;;;;;;6056898;23;20023;-82
2021/09/15 18:58:55;;;;;;;2.03;0.28;;;16.90;99.90;;;;;;5994587;24;20016;-82
2021/09/15 19:01:21;;;;;;;3.78;0.30;;;16.90;99.90;;;;;;5971217;24;20036;-83
2021/09/15 19:03:46;;;;;;;1.88;0.30;;;16.90;99.90;;;;;;5994538;24;20012;-83